CheckWX is a tool to help pilots better visualize weather data.  It is not intended as a substitute for an official pre-flight weather briefing.

10:06:29 UTC

KFMN TAF
Four Corners Regional Airport
Farmington, New Mexico, USA
KFMN 260527Z 2606/2706 VRB06KT P6SM SCT120 SCT250 FM260700 09007KT P6SM SCT150 BKN250 FM261700 21007KT P6SM FEW150 SCT200 FM262100 25015G22KT P6SM FEW110 FM270200 25007KT P6SM SCT120

Jun-26@
06:00 UTC

Jun-26 @ 06:00 UTC

Jun-26@
07:00 UTC

Jun-26 @ 07:00 UTC

KFMN 260527Z 2606/2706 VRB06KT P6SM SCT120 SCT250

Expired

Wind
  • Variable at 6 KTS
Cloud Levels
  • Scattered at 12,000' AGL
  • Scattered at 25,000' AGL

Jun-26@
07:00 UTC

Jun-26 @ 07:00 UTC

Jun-26@
17:00 UTC

Jun-26 @ 17:00 UTC

FM260700 09007KT P6SM SCT150 BKN250

From

From Standard forecast or significant change

Wind
  • 090° at 7 KTS
Cloud Levels
  • Scattered at 15,000' AGL
  • Broken at 25,000' AGL

Jun-26@
17:00 UTC

Jun-26 @ 17:00 UTC

Jun-26@
21:00 UTC

Jun-26 @ 21:00 UTC

FM261700 21007KT P6SM FEW150 SCT200

From

From Standard forecast or significant change

Wind
  • 210° at 7 KTS
Cloud Levels
  • Few at 15,000' AGL
  • Scattered at 20,000' AGL

Jun-26@
21:00 UTC

Jun-26 @ 21:00 UTC

Jun-27@
02:00 UTC

Jun-27 @ 02:00 UTC

FM262100 25015G22KT P6SM FEW110

From

From Standard forecast or significant change

Wind
  • 250° at 15 KTS
  • {Gusting to 22 KTS
Cloud Levels
  • Few at 11,000' AGL

Jun-27@
02:00 UTC

Jun-27 @ 02:00 UTC

Jun-27@
06:00 UTC

Jun-27 @ 06:00 UTC

FM270200 25007KT P6SM SCT120

From

From Standard forecast or significant change

Wind
  • 250° at 7 KTS
Cloud Levels
  • Scattered at 12,000' AGL